createdAt,value
2022-09-09T00:00:00.205Z,100189.70
2022-09-09T00:05:05.346Z,100186.64
2022-09-09T00:10:28.117Z,100185.13
2022-09-09T00:15:57.590Z,100181.81
2022-09-09T00:21:08.312Z,100174.42
2022-09-09T00:26:13.065Z,100167.11
2022-09-09T00:31:21.235Z,100161.05
2022-09-09T00:36:28.848Z,100159.02
2022-09-09T00:42:19.322Z,100155.05
2022-09-09T00:47:39.828Z,100154.33
2022-09-09T00:53:16.526Z,100148.70
2022-09-09T00:58:18.299Z,100151.54
2022-09-09T01:03:34.101Z,100146.95
2022-09-09T01:09:00.755Z,100150.91
2022-09-09T01:14:13.901Z,100150.72
2022-09-09T01:19:28.066Z,100151.62
2022-09-09T01:24:48.575Z,100157.97
2022-09-09T01:29:50.355Z,100155.97
2022-09-09T01:34:52.742Z,100153.16
2022-09-09T01:39:54.575Z,100158.87
2022-09-09T01:44:56.495Z,100155.65
2022-09-09T01:50:00.009Z,100160.75
2022-09-09T01:55:01.783Z,100159.83
2022-09-09T02:00:11.925Z,100162.86
2022-09-09T02:05:41.783Z,100168.19
2022-09-09T02:10:46.937Z,100173.74
2022-09-09T02:15:54.348Z,100173.91
2022-09-09T02:20:59.750Z,100171.42
2022-09-09T02:26:04.247Z,100176.39
2022-09-09T02:31:06.893Z,100180.99
2022-09-09T02:36:12.398Z,100184.45
2022-09-09T02:41:14.172Z,100187.37
2022-09-09T02:46:42.779Z,100182.20
2022-09-09T02:51:56.122Z,100183.39
2022-09-09T02:57:02.400Z,100191.27
2022-09-09T03:02:04.858Z,100189.33
2022-09-09T03:07:07.077Z,100186.81
2022-09-09T03:12:10.286Z,100197.00
2022-09-09T03:17:12.467Z,100204.06
2022-09-09T03:22:14.253Z,100204.13
2022-09-09T03:27:16.323Z,100198.95
2022-09-09T03:32:19.021Z,100196.52
2022-09-09T03:37:21.307Z,100192.40
2022-09-09T03:42:23.296Z,100186.98
2022-09-09T03:47:25.162Z,100193.46
2022-09-09T03:52:27.466Z,100201.91
2022-09-09T03:57:30.553Z,100203.33
2022-09-09T04:02:32.634Z,100202.27
2022-09-09T04:07:34.517Z,100205.59
2022-09-09T04:12:36.390Z,100212.02
2022-09-09T04:17:38.170Z,100205.17
2022-09-09T04:22:40.450Z,100202.44
2022-09-09T04:27:43.455Z,100203.90
2022-09-09T04:32:45.227Z,100205.52
2022-09-09T04:37:47.105Z,100201.98
2022-09-09T04:42:50.108Z,100200.23
2022-09-09T04:47:51.893Z,100194.74
2022-09-09T04:52:53.656Z,100196.36
2022-09-09T04:57:55.431Z,100194.48
2022-09-09T05:02:57.204Z,100203.98
2022-09-09T05:08:03.795Z,100211.02
2022-09-09T05:13:07.178Z,100210.88
2022-09-09T05:18:08.775Z,100214.67
2022-09-09T05:23:12.699Z,100220.04
2022-09-09T05:28:14.577Z,100222.77
2022-09-09T05:33:16.555Z,100226.01
2022-09-09T05:38:19.150Z,100219.98
2022-09-09T05:43:21.025Z,100226.80
2022-09-09T05:48:22.798Z,100228.10
2022-09-09T05:53:25.088Z,100229.30
2022-09-09T05:58:27.372Z,100232.92
2022-09-09T06:03:29.763Z,100237.27
2022-09-09T06:08:32.583Z,100236.35
2022-09-09T06:13:34.445Z,100234.69
2022-09-09T06:18:36.367Z,100239.16
2022-09-09T06:23:41.058Z,100243.35
2022-09-09T06:28:43.446Z,100243.58
2022-09-09T06:33:45.631Z,100244.98
2022-09-09T06:38:48.029Z,100247.50
2022-09-09T06:43:50.206Z,100244.88
2022-09-09T06:48:52.391Z,100252.50
2022-09-09T06:53:56.551Z,100258.29
2022-09-09T06:59:02.699Z,100257.07
2022-09-09T07:04:08.361Z,100257.88
2022-09-09T07:09:12.808Z,100260.02
2022-09-09T07:14:15.620Z,100263.13
2022-09-09T07:19:17.777Z,100264.84
2022-09-09T07:24:20.064Z,100270.48
2022-09-09T07:29:22.151Z,100269.19
2022-09-09T07:34:24.033Z,100265.16
2022-09-09T07:39:25.799Z,100277.84
2022-09-09T07:44:27.892Z,100282.29
2022-09-09T07:49:32.719Z,100281.27
2022-09-09T07:54:35.132Z,100281.25
2022-09-09T07:59:36.990Z,100284.17
2022-09-09T08:04:38.766Z,100290.23
2022-09-09T08:09:41.483Z,100300.38
2022-09-09T08:14:43.540Z,100294.86
2022-09-09T08:19:46.341Z,100294.44
2022-09-09T08:24:48.422Z,100288.01
2022-09-09T08:29:50.505Z,100280.41
2022-09-09T08:34:54.615Z,100291.10
2022-09-09T08:39:56.748Z,100286.85
2022-09-09T08:45:15.603Z,100285.37
2022-09-09T08:50:17.717Z,100295.23
2022-09-09T08:55:29.173Z,100292.83
2022-09-09T09:00:44.674Z,100302.39
2022-09-09T09:06:34.992Z,100313.67
2022-09-09T09:11:51.198Z,100318.34
2022-09-09T09:17:11.711Z,100321.60
2022-09-09T09:22:44.209Z,100323.49
2022-09-09T09:28:07.051Z,100329.60
2022-09-09T09:33:23.401Z,100328.64
2022-09-09T09:43:55.321Z,100331.12
2022-09-09T09:49:10.085Z,100329.29
2022-09-09T09:54:15.656Z,100327.27
2022-09-09T09:59:44.151Z,100330.52
2022-09-09T10:04:46.900Z,100333.52
2022-09-09T10:09:55.501Z,100333.14
2022-09-09T10:15:19.172Z,100327.88
2022-09-09T10:20:59.033Z,100331.52
2022-09-09T10:26:24.053Z,100336.14
2022-09-09T10:31:45.079Z,100339.22
2022-09-09T10:36:51.666Z,100341.80
2022-09-09T10:42:06.554Z,100342.79
2022-09-09T10:47:20.815Z,100345.93
2022-09-09T10:52:58.533Z,100345.34
2022-09-09T10:58:07.235Z,100350.92
2022-09-09T11:03:30.241Z,100347.25
2022-09-09T11:08:36.982Z,100354.57
2022-09-09T11:13:52.034Z,100356.39
2022-09-09T11:19:04.033Z,100365.44
2022-09-09T11:24:14.624Z,100367.01
2022-09-09T11:29:44.958Z,100369.83
2022-09-09T11:35:03.964Z,100374.13
2022-09-09T11:40:27.132Z,100372.24
2022-09-09T11:45:30.331Z,100376.42
2022-09-09T11:50:38.131Z,100374.70
2022-09-09T11:55:40.937Z,100384.48
2022-09-09T12:00:49.063Z,100384.56
2022-09-09T12:05:52.056Z,100380.11
2022-09-09T12:11:03.647Z,100378.21
2022-09-09T12:16:06.258Z,100376.81
2022-09-09T12:21:45.426Z,100374.43
2022-09-09T12:27:17.695Z,100374.67
2022-09-09T12:32:29.710Z,100376.67
2022-09-09T12:37:54.631Z,100378.09
2022-09-09T12:42:56.711Z,100372.98
2022-09-09T12:48:01.352Z,100373.52
2022-09-09T12:53:17.668Z,100376.98
2022-09-09T12:58:21.609Z,100373.45
2022-09-09T13:03:25.603Z,100372.13
2022-09-09T13:08:28.214Z,100374.85
2022-09-09T13:13:40.670Z,100373.39
2022-09-09T13:18:43.129Z,100375.81
2022-09-09T13:23:51.763Z,100371.84
2022-09-09T13:28:55.551Z,100369.33
2022-09-09T13:33:58.198Z,100366.21
2022-09-09T13:39:02.064Z,100362.44
2022-09-09T13:44:07.051Z,100362.21
2022-09-09T13:49:12.004Z,100367.02
2022-09-09T13:54:17.126Z,100361.52
2022-09-09T13:59:23.636Z,100363.27
2022-09-09T14:04:25.516Z,100359.50
2022-09-09T14:09:27.518Z,100353.20
2022-09-09T14:14:29.580Z,100357.58
2022-09-09T14:19:31.865Z,100355.28
2022-09-09T14:24:33.845Z,100364.02
2022-09-09T14:29:35.635Z,100375.17
2022-09-09T14:34:38.007Z,100382.55
2022-09-09T14:39:41.048Z,100377.02
2022-09-09T14:44:43.087Z,100374.80
2022-09-09T14:49:47.155Z,100377.55
2022-09-09T14:54:50.215Z,100371.40
2022-09-09T14:59:52.205Z,100373.17
2022-09-09T15:04:57.768Z,100383.86
2022-09-09T15:09:59.644Z,100388.02
2022-09-09T15:15:01.517Z,100388.86
2022-09-09T15:20:08.043Z,100392.09
2022-09-09T15:25:13.229Z,100396.33
2022-09-09T15:30:16.950Z,100394.52
2022-09-09T15:35:18.956Z,100401.48
2022-09-09T15:40:20.697Z,100405.91
2022-09-09T15:45:22.505Z,100407.94
2022-09-09T15:50:24.510Z,100409.61
2022-09-09T15:55:26.876Z,100409.54
2022-09-09T16:00:29.679Z,100408.66
2022-09-09T16:05:32.060Z,100406.83
2022-09-09T16:10:33.938Z,100403.83
2022-09-09T16:15:35.756Z,100397.34
2022-09-09T16:20:37.588Z,100397.90
2022-09-09T16:25:39.873Z,100403.11
2022-09-09T16:30:41.954Z,100395.77
2022-09-09T16:35:44.654Z,100393.42
2022-09-09T16:40:46.530Z,100394.66
2022-09-09T16:45:48.479Z,100387.07
2022-09-09T16:50:52.175Z,100393.23
2022-09-09T16:55:54.824Z,100400.73
2022-09-09T17:01:04.107Z,100398.50
2022-09-09T17:06:14.892Z,100400.52
2022-09-09T17:11:26.574Z,100406.27
2022-09-09T17:16:32.202Z,100410.02
2022-09-09T17:21:49.594Z,100408.42
2022-09-09T17:26:58.527Z,100411.90
2022-09-09T17:32:00.701Z,100421.56
2022-09-09T17:37:06.829Z,100431.80
2022-09-09T17:42:11.798Z,100433.43
2022-09-09T17:47:14.226Z,100439.96
2022-09-09T17:52:21.538Z,100452.76
2022-09-09T17:57:26.955Z,100447.09
2022-09-09T18:02:29.508Z,100455.01
2022-09-09T18:07:32.989Z,100463.84
2022-09-09T18:12:36.204Z,100460.59
2022-09-09T18:17:39.289Z,100456.44
2022-09-09T18:22:42.818Z,100455.38
2022-09-09T18:27:47.556Z,100452.90
2022-09-09T18:32:53.553Z,100450.73
2022-09-09T18:37:58.522Z,100452.77
2022-09-09T18:43:04.304Z,100459.02
2022-09-09T18:48:15.758Z,100470.12
2022-09-09T18:53:23.246Z,100466.38
2022-09-09T18:58:27.012Z,100473.37
2022-09-09T19:03:30.866Z,100475.58
2022-09-09T19:08:42.856Z,100486.94
2022-09-09T19:13:54.521Z,100491.27
2022-09-09T19:19:04.043Z,100489.01
2022-09-09T19:24:30.427Z,100494.84
2022-09-09T19:29:36.155Z,100493.09
2022-09-09T19:34:43.892Z,100488.45
2022-09-09T19:39:48.158Z,100485.08
2022-09-09T19:44:54.845Z,100482.84
2022-09-09T19:49:59.442Z,100473.52
2022-09-09T19:55:02.015Z,100466.36
2022-09-09T20:00:13.574Z,100466.91
2022-09-09T20:05:16.833Z,100464.75
2022-09-09T20:10:20.550Z,100463.58
2022-09-09T20:15:22.990Z,100462.80
2022-09-09T20:20:28.162Z,100453.89
2022-09-09T20:25:37.417Z,100451.99
2022-09-09T20:30:41.623Z,100450.19
2022-09-09T20:35:45.011Z,100450.20
2022-09-09T20:40:48.416Z,100461.02
2022-09-09T20:45:53.754Z,100462.61
2022-09-09T20:50:56.189Z,100462.89
2022-09-09T20:56:02.268Z,100469.54
2022-09-09T21:01:07.450Z,100476.06
2022-09-09T21:06:11.453Z,100477.34
2022-09-09T21:11:14.994Z,100472.52
2022-09-09T21:16:21.009Z,100476.08
2022-09-09T21:21:23.222Z,100475.74
2022-09-09T21:26:26.570Z,100474.91
2022-09-09T21:31:29.004Z,100463.73
2022-09-09T21:36:31.002Z,100469.22
2022-09-09T21:41:32.776Z,100477.12
2022-09-09T21:46:36.965Z,100477.09
2022-09-09T21:51:38.781Z,100471.27
2022-09-09T21:56:40.662Z,100463.64
2022-09-09T22:01:42.623Z,100458.17
2022-09-09T22:06:44.513Z,100462.38
2022-09-09T22:11:46.192Z,100465.71
2022-09-09T22:16:48.063Z,100472.77
2022-09-09T22:21:49.942Z,100469.48
2022-09-09T22:26:55.300Z,100474.91
2022-09-09T22:31:58.000Z,100469.73
2022-09-09T22:37:01.717Z,100452.98
2022-09-09T22:42:05.817Z,100452.21
2022-09-09T22:47:07.628Z,100444.56
2022-09-09T22:52:10.418Z,100443.16
2022-09-09T22:57:13.420Z,100445.58
2022-09-09T23:02:15.297Z,100442.67
2022-09-09T23:07:20.256Z,100439.32
2022-09-09T23:12:22.019Z,100430.29
2022-09-09T23:17:24.616Z,100424.19
2022-09-09T23:22:27.513Z,100423.98
2022-09-09T23:27:30.891Z,100425.50
2022-09-09T23:32:33.213Z,100413.02
2022-09-09T23:37:34.988Z,100416.04
2022-09-09T23:42:36.658Z,100405.74
2022-09-09T23:47:38.435Z,100409.66
2022-09-09T23:52:43.383Z,100414.40
2022-09-09T23:57:45.158Z,100404.89
